sensor_id;sensor_type;location;lat;lon;timestamp;pressure;altitude;pressure_sealevel;temperature;humidity
28181;BME280;15464;50.988;10.318;2023-04-04T00:00:20;100164.81;;;1.35;57.33
28181;BME280;15464;50.988;10.318;2023-04-04T00:02:47;100162.50;;;1.24;56.88
28181;BME280;15464;50.988;10.318;2023-04-04T00:05:14;100168.47;;;1.29;56.66
28181;BME280;15464;50.988;10.318;2023-04-04T00:07:41;100166.78;;;1.27;57.07
28181;BME280;15464;50.988;10.318;2023-04-04T00:10:08;100170.34;;;1.24;57.11
28181;BME280;15464;50.988;10.318;2023-04-04T00:12:35;100167.13;;;1.14;57.07
28181;BME280;15464;50.988;10.318;2023-04-04T00:15:02;100168.28;;;1.04;57.84
28181;BME280;15464;50.988;10.318;2023-04-04T00:17:29;100174.41;;;1.03;58.47
28181;BME280;15464;50.988;10.318;2023-04-04T00:19:55;100164.81;;;1.04;58.37
28181;BME280;15464;50.988;10.318;2023-04-04T00:22:23;100170.63;;;1.13;57.70
28181;BME280;15464;50.988;10.318;2023-04-04T00:24:50;100169.69;;;1.16;58.63
28181;BME280;15464;50.988;10.318;2023-04-04T00:27:16;100177.56;;;1.14;58.81
28181;BME280;15464;50.988;10.318;2023-04-04T00:29:43;100175.00;;;1.13;58.77
28181;BME280;15464;50.988;10.318;2023-04-04T00:32:10;100175.00;;;1.13;58.74
28181;BME280;15464;50.988;10.318;2023-04-04T00:34:37;100175.13;;;1.08;58.97
28181;BME280;15464;50.988;10.318;2023-04-04T00:37:04;100169.75;;;1.13;59.14
28181;BME280;15464;50.988;10.318;2023-04-04T00:39:33;100170.75;;;1.09;59.48
28181;BME280;15464;50.988;10.318;2023-04-04T00:41:59;100173.47;;;1.06;59.54
28181;BME280;15464;50.988;10.318;2023-04-04T00:44:26;100169.94;;;1.07;59.68
28181;BME280;15464;50.988;10.318;2023-04-04T00:46:53;100171.91;;;0.99;60.42
28181;BME280;15464;50.988;10.318;2023-04-04T00:49:20;100173.47;;;1.06;60.17
28181;BME280;15464;50.988;10.318;2023-04-04T00:51:47;100172.69;;;1.02;60.10
28181;BME280;15464;50.988;10.318;2023-04-04T00:54:14;100170.91;;;1.04;60.79
28181;BME280;15464;50.988;10.318;2023-04-04T00:56:41;100164.16;;;0.96;60.89
28181;BME280;15464;50.988;10.318;2023-04-04T00:59:08;100163.34;;;0.94;60.98
28181;BME280;15464;50.988;10.318;2023-04-04T01:01:35;100167.50;;;1.01;60.94
28181;BME280;15464;50.988;10.318;2023-04-04T01:04:03;100170.28;;;0.95;60.77
28181;BME280;15464;50.988;10.318;2023-04-04T01:06:29;100165.03;;;0.95;61.21
28181;BME280;15464;50.988;10.318;2023-04-04T01:08:58;100157.28;;;0.93;60.90
28181;BME280;15464;50.988;10.318;2023-04-04T01:11:25;100161.63;;;0.93;61.60
28181;BME280;15464;50.988;10.318;2023-04-04T01:13:53;100164.09;;;0.99;61.41
28181;BME280;15464;50.988;10.318;2023-04-04T01:16:21;100166.69;;;0.99;61.33
28181;BME280;15464;50.988;10.318;2023-04-04T01:18:49;100162.16;;;1.05;61.14
28181;BME280;15464;50.988;10.318;2023-04-04T01:21:17;100163.75;;;1.11;60.81
28181;BME280;15464;50.988;10.318;2023-04-04T01:24:02;100161.31;;;1.05;61.28
28181;BME280;15464;50.988;10.318;2023-04-04T01:26:30;100155.22;;;1.04;61.99
28181;BME280;15464;50.988;10.318;2023-04-04T01:28:57;100154.53;;;0.98;61.40
28181;BME280;15464;50.988;10.318;2023-04-04T01:31:35;100153.63;;;0.99;61.42
28181;BME280;15464;50.988;10.318;2023-04-04T01:34:27;100146.84;;;0.92;62.01
28181;BME280;15464;50.988;10.318;2023-04-04T01:37:05;100159.13;;;0.88;61.82
28181;BME280;15464;50.988;10.318;2023-04-04T01:39:47;100147.81;;;0.88;62.10
28181;BME280;15464;50.988;10.318;2023-04-04T01:42:15;100140.06;;;0.86;62.20
28181;BME280;15464;50.988;10.318;2023-04-04T01:44:43;100145.28;;;0.86;61.73
28181;BME280;15464;50.988;10.318;2023-04-04T01:47:11;100142.53;;;0.91;61.41
28181;BME280;15464;50.988;10.318;2023-04-04T01:49:38;100140.94;;;0.85;61.21
28181;BME280;15464;50.988;10.318;2023-04-04T01:52:05;100135.91;;;0.77;61.05
28181;BME280;15464;50.988;10.318;2023-04-04T01:54:32;100135.94;;;0.76;60.74
28181;BME280;15464;50.988;10.318;2023-04-04T01:57:01;100140.22;;;0.80;61.32
28181;BME280;15464;50.988;10.318;2023-04-04T01:59:28;100135.06;;;0.77;60.87
28181;BME280;15464;50.988;10.318;2023-04-04T02:01:55;100129.09;;;0.72;60.64
28181;BME280;15464;50.988;10.318;2023-04-04T02:04:22;100131.72;;;0.72;61.16
28181;BME280;15464;50.988;10.318;2023-04-04T02:06:48;100131.69;;;0.73;61.02
28181;BME280;15464;50.988;10.318;2023-04-04T02:09:15;100132.47;;;0.75;60.95
28181;BME280;15464;50.988;10.318;2023-04-04T02:11:42;100118.63;;;0.73;60.57
28181;BME280;15464;50.988;10.318;2023-04-04T02:14:09;100125.47;;;0.77;60.62
28181;BME280;15464;50.988;10.318;2023-04-04T02:16:35;100122.97;;;0.74;60.08
28181;BME280;15464;50.988;10.318;2023-04-04T02:19:02;100125.78;;;0.67;59.96
28181;BME280;15464;50.988;10.318;2023-04-04T02:21:29;100123.19;;;0.65;60.15
28181;BME280;15464;50.988;10.318;2023-04-04T02:23:56;100121.72;;;0.55;60.50
28181;BME280;15464;50.988;10.318;2023-04-04T02:26:22;100116.44;;;0.57;60.04
28181;BME280;15464;50.988;10.318;2023-04-04T02:28:49;100116.66;;;0.49;60.05
28181;BME280;15464;50.988;10.318;2023-04-04T02:31:15;100116.66;;;0.49;59.72
28181;BME280;15464;50.988;10.318;2023-04-04T02:33:42;100118.34;;;0.50;60.52
28181;BME280;15464;50.988;10.318;2023-04-04T02:36:09;100113.97;;;0.52;60.87
28181;BME280;15464;50.988;10.318;2023-04-04T02:38:37;100111.31;;;0.54;61.20
28181;BME280;15464;50.988;10.318;2023-04-04T02:41:04;100106.22;;;0.49;61.37
28181;BME280;15464;50.988;10.318;2023-04-04T02:43:30;100101.97;;;0.45;61.87
28181;BME280;15464;50.988;10.318;2023-04-04T02:45:57;100100.41;;;0.38;61.51
28181;BME280;15464;50.988;10.318;2023-04-04T02:48:28;100107.44;;;0.36;61.33
28181;BME280;15464;50.988;10.318;2023-04-04T02:50:55;100096.91;;;0.39;61.07
28181;BME280;15464;50.988;10.318;2023-04-04T02:53:21;100100.50;;;0.35;60.86
28181;BME280;15464;50.988;10.318;2023-04-04T02:55:48;100096.16;;;0.34;61.33
28181;BME280;15464;50.988;10.318;2023-04-04T02:58:15;100087.47;;;0.33;61.02
28181;BME280;15464;50.988;10.318;2023-04-04T03:00:41;100085.72;;;0.34;61.17
28181;BME280;15464;50.988;10.318;2023-04-04T03:03:08;100089.16;;;0.36;61.00
28181;BME280;15464;50.988;10.318;2023-04-04T03:05:35;100086.47;;;0.39;60.89
28181;BME280;15464;50.988;10.318;2023-04-04T03:08:02;100089.00;;;0.42;60.94
28181;BME280;15464;50.988;10.318;2023-04-04T03:10:30;100091.66;;;0.40;61.20
28181;BME280;15464;50.988;10.318;2023-04-04T03:12:57;100094.34;;;0.37;61.61
28181;BME280;15464;50.988;10.318;2023-04-04T03:15:24;100081.38;;;0.34;61.53
28181;BME280;15464;50.988;10.318;2023-04-04T03:17:52;100079.78;;;0.29;61.71
28181;BME280;15464;50.988;10.318;2023-04-04T03:20:19;100074.63;;;0.26;62.13
28181;BME280;15464;50.988;10.318;2023-04-04T03:22:47;100075.63;;;0.20;62.26
28181;BME280;15464;50.988;10.318;2023-04-04T03:25:14;100074.94;;;0.14;62.04
28181;BME280;15464;50.988;10.318;2023-04-04T03:27:42;100070.59;;;0.13;62.29
28181;BME280;15464;50.988;10.318;2023-04-04T03:30:09;100074.13;;;0.12;63.28
28181;BME280;15464;50.988;10.318;2023-04-04T03:32:36;100075.19;;;0.05;63.58
28181;BME280;15464;50.988;10.318;2023-04-04T03:35:07;100064.75;;;0.05;63.21
28181;BME280;15464;50.988;10.318;2023-04-04T03:37:34;100070.84;;;0.04;63.54
28181;BME280;15464;50.988;10.318;2023-04-04T03:40:00;100067.41;;;0.02;63.38
28181;BME280;15464;50.988;10.318;2023-04-04T03:42:32;100065.69;;;0.00;63.72
28181;BME280;15464;50.988;10.318;2023-04-04T03:44:58;100075.31;;;0.00;63.66
28181;BME280;15464;50.988;10.318;2023-04-04T03:47:26;100064.09;;;-0.05;64.59
28181;BME280;15464;50.988;10.318;2023-04-04T03:49:52;100067.56;;;-0.05;65.59
28181;BME280;15464;50.988;10.318;2023-04-04T03:52:21;100068.59;;;-0.12;66.18
28181;BME280;15464;50.988;10.318;2023-04-04T03:54:48;100066.91;;;-0.13;66.88
28181;BME280;15464;50.988;10.318;2023-04-04T03:57:14;100069.53;;;-0.13;65.77
28181;BME280;15464;50.988;10.318;2023-04-04T03:59:41;100056.50;;;-0.13;65.75
28181;BME280;15464;50.988;10.318;2023-04-04T04:02:08;100063.38;;;-0.12;65.58
28181;BME280;15464;50.988;10.318;2023-04-04T04:04:34;100060.00;;;-0.14;66.01
28181;BME280;15464;50.988;10.318;2023-04-04T04:07:01;100062.59;;;-0.14;65.89
28181;BME280;15464;50.988;10.318;2023-04-04T04:09:28;100062.66;;;-0.17;66.65
28181;BME280;15464;50.988;10.318;2023-04-04T04:11:54;100057.59;;;-0.23;66.91
28181;BME280;15464;50.988;10.318;2023-04-04T04:14:21;100050.03;;;-0.33;66.64
28181;BME280;15464;50.988;10.318;2023-04-04T04:16:48;100046.75;;;-0.43;67.65
28181;BME280;15464;50.988;10.318;2023-04-04T04:19:15;100047.75;;;-0.49;68.16
28181;BME280;15464;50.988;10.318;2023-04-04T04:21:41;100053.94;;;-0.51;67.62
28181;BME280;15464;50.988;10.318;2023-04-04T04:24:09;100045.34;;;-0.56;67.49
28181;BME280;15464;50.988;10.318;2023-04-04T04:26:35;100051.47;;;-0.57;67.24
28181;BME280;15464;50.988;10.318;2023-04-04T04:29:02;100054.19;;;-0.63;68.06
28181;BME280;15464;50.988;10.318;2023-04-04T04:31:29;100054.25;;;-0.66;68.64
28181;BME280;15464;50.988;10.318;2023-04-04T04:33:56;100048.16;;;-0.65;68.84
28181;BME280;15464;50.988;10.318;2023-04-04T04:36:24;100054.28;;;-0.68;68.56
28181;BME280;15464;50.988;10.318;2023-04-04T04:38:51;100044.09;;;-0.78;69.99
28181;BME280;15464;50.988;10.318;2023-04-04T04:41:17;100048.44;;;-0.77;70.13
28181;BME280;15464;50.988;10.318;2023-04-04T04:43:44;100049.25;;;-0.75;69.92
28181;BME280;15464;50.988;10.318;2023-04-04T04:46:11;100047.69;;;-0.83;70.75
28181;BME280;15464;50.988;10.318;2023-04-04T04:48:37;100047.69;;;-0.83;70.14
28181;BME280;15464;50.988;10.318;2023-04-04T04:51:04;100046.78;;;-0.82;70.18
28181;BME280;15464;50.988;10.318;2023-04-04T04:53:31;100050.31;;;-0.84;70.27
28181;BME280;15464;50.988;10.318;2023-04-04T04:55:58;100051.34;;;-0.93;71.38
28181;BME280;15464;50.988;10.318;2023-04-04T04:58:24;100060.25;;;-1.03;74.05
28181;BME280;15464;50.988;10.318;2023-04-04T05:00:54;100059.56;;;-1.12;74.39
28181;BME280;15464;50.988;10.318;2023-04-04T05:03:24;100059.63;;;-1.14;73.50
28181;BME280;15464;50.988;10.318;2023-04-04T05:05:51;100060.31;;;-1.06;72.26
28181;BME280;15464;50.988;10.318;2023-04-04T05:08:18;100061.97;;;-1.02;72.62
28181;BME280;15464;50.988;10.318;2023-04-04T05:10:45;100061.97;;;-1.02;72.63
28181;BME280;15464;50.988;10.318;2023-04-04T05:13:12;100067.28;;;-1.06;73.58
28181;BME280;15464;50.988;10.318;2023-04-04T05:15:39;100062.09;;;-1.08;73.61
28181;BME280;15464;50.988;10.318;2023-04-04T05:18:06;100063.75;;;-1.04;72.73
28181;BME280;15464;50.988;10.318;2023-04-04T05:20:33;100062.78;;;-1.00;72.58
28181;BME280;15464;50.988;10.318;2023-04-04T05:23:00;100068.81;;;-0.98;72.40
28181;BME280;15464;50.988;10.318;2023-04-04T05:25:27;100070.53;;;-0.97;72.56
28181;BME280;15464;50.988;10.318;2023-04-04T05:27:54;100068.78;;;-0.95;72.72
28181;BME280;15464;50.988;10.318;2023-04-04T05:30:21;100070.47;;;-0.94;72.29
28181;BME280;15464;50.988;10.318;2023-04-04T05:32:50;100076.59;;;-0.95;73.29
28181;BME280;15464;50.988;10.318;2023-04-04T05:35:17;100073.00;;;-0.89;73.41
28181;BME280;15464;50.988;10.318;2023-04-04T05:37:44;100078.06;;;-0.83;73.46
28181;BME280;15464;50.988;10.318;2023-04-04T05:40:11;100080.66;;;-0.82;73.74
28181;BME280;15464;50.988;10.318;2023-04-04T05:42:37;100085.84;;;-0.82;74.06
28181;BME280;15464;50.988;10.318;2023-04-04T05:45:04;100083.94;;;-0.73;74.12
28181;BME280;15464;50.988;10.318;2023-04-04T05:47:31;100080.31;;;-0.66;74.35
28181;BME280;15464;50.988;10.318;2023-04-04T05:49:58;100081.16;;;-0.66;74.38
28181;BME280;15464;50.988;10.318;2023-04-04T05:52:25;100080.16;;;-0.60;73.92
28181;BME280;15464;50.988;10.318;2023-04-04T05:54:52;100082.66;;;-0.56;74.01
28181;BME280;15464;50.988;10.318;2023-04-04T05:57:18;100087.81;;;-0.53;73.96
28181;BME280;15464;50.988;10.318;2023-04-04T05:59:45;100092.00;;;-0.44;73.98
28181;BME280;15464;50.988;10.318;2023-04-04T06:02:11;100095.34;;;-0.39;73.23
28181;BME280;15464;50.988;10.318;2023-04-04T06:04:38;100096.09;;;-0.34;73.45
28181;BME280;15464;50.988;10.318;2023-04-04T06:07:06;100102.06;;;-0.30;72.61
28181;BME280;15464;50.988;10.318;2023-04-04T06:09:33;100102.88;;;-0.27;72.14
28181;BME280;15464;50.988;10.318;2023-04-04T06:12:01;100100.28;;;-0.27;72.79
28181;BME280;15464;50.988;10.318;2023-04-04T06:14:30;100106.25;;;-0.23;73.00
28181;BME280;15464;50.988;10.318;2023-04-04T06:16:57;100110.41;;;-0.15;73.46
28181;BME280;15464;50.988;10.318;2023-04-04T06:19:24;100107.69;;;-0.10;72.79
28181;BME280;15464;50.988;10.318;2023-04-04T06:21:51;100117.13;;;-0.05;72.07
28181;BME280;15464;50.988;10.318;2023-04-04T06:24:17;100116.94;;;0.03;72.52
28181;BME280;15464;50.988;10.318;2023-04-04T06:26:44;100110.75;;;0.07;71.78
28181;BME280;15464;50.988;10.318;2023-04-04T06:29:11;100113.16;;;0.15;72.72
28181;BME280;15464;50.988;10.318;2023-04-04T06:31:38;100113.13;;;0.18;72.25
28181;BME280;15464;50.988;10.318;2023-04-04T06:34:05;100121.72;;;0.21;72.09
28181;BME280;15464;50.988;10.318;2023-04-04T06:36:32;100127.50;;;0.32;72.21
28181;BME280;15464;50.988;10.318;2023-04-04T06:38:58;100133.44;;;0.39;72.62
28181;BME280;15464;50.988;10.318;2023-04-04T06:41:25;100133.38;;;0.42;73.41
28181;BME280;15464;50.988;10.318;2023-04-04T06:43:52;100120.94;;;0.52;74.22
28181;BME280;15464;50.988;10.318;2023-04-04T06:46:19;100122.63;;;0.54;74.97
28181;BME280;15464;50.988;10.318;2023-04-04T06:48:45;100124.97;;;0.63;74.65
28181;BME280;15464;50.988;10.318;2023-04-04T06:51:12;100129.09;;;0.72;73.41
28181;BME280;15464;50.988;10.318;2023-04-04T06:53:39;100127.19;;;0.78;73.43
28181;BME280;15464;50.988;10.318;2023-04-04T06:56:06;100126.13;;;0.86;72.50
28181;BME280;15464;50.988;10.318;2023-04-04T06:58:33;100131.22;;;0.90;71.66
28181;BME280;15464;50.988;10.318;2023-04-04T07:01:00;100124.91;;;0.99;71.21
28181;BME280;15464;50.988;10.318;2023-04-04T07:03:27;100125.41;;;1.11;71.32
28181;BME280;15464;50.988;10.318;2023-04-04T07:05:54;100120.78;;;1.21;72.51
28181;BME280;15464;50.988;10.318;2023-04-04T07:08:21;100116.16;;;1.31;72.56
28181;BME280;15464;50.988;10.318;2023-04-04T07:10:48;100118.25;;;1.47;70.11
28181;BME280;15464;50.988;10.318;2023-04-04T07:13:14;100116.91;;;1.34;70.27
28181;BME280;15464;50.988;10.318;2023-04-04T07:15:45;100121.25;;;1.35;69.44
28181;BME280;15464;50.988;10.318;2023-04-04T07:18:14;100119.88;;;1.51;68.06
28181;BME280;15464;50.988;10.318;2023-04-04T07:20:41;100121.88;;;1.43;68.05
28181;BME280;15464;50.988;10.318;2023-04-04T07:23:09;100118.09;;;1.53;69.28
28181;BME280;15464;50.988;10.318;2023-04-04T07:25:38;100121.16;;;1.68;68.79
28181;BME280;15464;50.988;10.318;2023-04-04T07:28:05;100117.97;;;1.86;69.28
28181;BME280;15464;50.988;10.318;2023-04-04T07:30:38;100117.06;;;1.87;70.02
28181;BME280;15464;50.988;10.318;2023-04-04T07:33:05;100121.63;;;1.80;69.62
28181;BME280;15464;50.988;10.318;2023-04-04T07:35:33;100116.66;;;1.99;69.56
28181;BME280;15464;50.988;10.318;2023-04-04T07:38:00;100121.50;;;2.11;67.38
28181;BME280;15464;50.988;10.318;2023-04-04T07:40:26;100119.69;;;2.13;67.61
28181;BME280;15464;50.988;10.318;2023-04-04T07:42:53;100119.31;;;1.97;66.74
28181;BME280;15464;50.988;10.318;2023-04-04T07:45:20;100117.22;;;2.09;67.22
28181;BME280;15464;50.988;10.318;2023-04-04T07:47:50;100105.81;;;2.11;66.09
28181;BME280;15464;50.988;10.318;2023-04-04T07:50:17;100115.88;;;2.23;66.78
28181;BME280;15464;50.988;10.318;2023-04-04T07:52:48;100121.78;;;2.30;66.48
28181;BME280;15464;50.988;10.318;2023-04-04T07:55:17;100116.97;;;2.42;67.05
28181;BME280;15464;50.988;10.318;2023-04-04T07:57:45;100122.22;;;2.42;67.11
28181;BME280;15464;50.988;10.318;2023-04-04T08:00:13;100116.56;;;2.55;67.50
28181;BME280;15464;50.988;10.318;2023-04-04T08:02:42;100117.22;;;2.61;66.38
28181;BME280;15464;50.988;10.318;2023-04-04T08:05:09;100123.53;;;2.56;67.81
28181;BME280;15464;50.988;10.318;2023-04-04T08:07:36;100114.00;;;2.78;67.25
28181;BME280;15464;50.988;10.318;2023-04-04T08:10:02;100114.31;;;2.94;67.05
28181;BME280;15464;50.988;10.318;2023-04-04T08:12:29;100113.13;;;3.02;67.13
28181;BME280;15464;50.988;10.318;2023-04-04T08:14:56;100115.34;;;3.13;64.31
28181;BME280;15464;50.988;10.318;2023-04-04T08:17:22;100117.25;;;3.09;65.59
28181;BME280;15464;50.988;10.318;2023-04-04T08:19:50;100116.34;;;3.10;62.46
28181;BME280;15464;50.988;10.318;2023-04-04T08:22:16;100116.00;;;3.19;60.79
28181;BME280;15464;50.988;10.318;2023-04-04T08:24:44;100114.31;;;3.18;59.09
28181;BME280;15464;50.988;10.318;2023-04-04T08:27:11;100116.00;;;3.19;58.04
28181;BME280;15464;50.988;10.318;2023-04-04T08:29:40;100115.88;;;3.22;57.57
28181;BME280;15464;50.988;10.318;2023-04-04T08:32:07;100109.16;;;3.15;53.56
28181;BME280;15464;50.988;10.318;2023-04-04T08:34:34;100110.66;;;3.22;53.88
28181;BME280;15464;50.988;10.318;2023-04-04T08:37:01;100115.53;;;3.32;54.15
28181;BME280;15464;50.988;10.318;2023-04-04T08:39:27;100118.28;;;3.05;52.65
28181;BME280;15464;50.988;10.318;2023-04-04T08:42:05;100113.66;;;3.12;50.04
28181;BME280;15464;50.988;10.318;2023-04-04T08:44:33;100118.28;;;3.05;51.33
28181;BME280;15464;50.988;10.318;2023-04-04T08:47:04;100109.16;;;3.15;50.10
28181;BME280;15464;50.988;10.318;2023-04-04T08:49:36;100119.88;;;3.09;51.08
28181;BME280;15464;50.988;10.318;2023-04-04T08:52:04;100120.06;;;2.80;52.65
28181;BME280;15464;50.988;10.318;2023-04-04T08:54:33;100121.47;;;2.64;53.32
28181;BME280;15464;50.988;10.318;2023-04-04T08:57:00;100122.75;;;2.77;53.96
28181;BME280;15464;50.988;10.318;2023-04-04T08:59:27;100108.75;;;2.78;54.21
28181;BME280;15464;50.988;10.318;2023-04-04T09:02:04;100113.56;;;2.90;54.05
28181;BME280;15464;50.988;10.318;2023-04-04T09:04:42;100113.69;;;2.87;54.65
28181;BME280;15464;50.988;10.318;2023-04-04T09:07:20;100114.00;;;2.78;49.86
28181;BME280;15464;50.988;10.318;2023-04-04T09:09:48;100109.78;;;2.74;51.11
28181;BME280;15464;50.988;10.318;2023-04-04T09:12:17;100111.22;;;2.58;51.87
28181;BME280;15464;50.988;10.318;2023-04-04T09:14:45;100118.97;;;2.61;51.80
28181;BME280;15464;50.988;10.318;2023-04-04T09:17:12;100125.00;;;2.63;51.62
28181;BME280;15464;50.988;10.318;2023-04-04T09:19:39;100123.78;;;2.73;51.30
28181;BME280;15464;50.988;10.318;2023-04-04T09:22:06;100122.50;;;2.84;52.07
28181;BME280;15464;50.988;10.318;2023-04-04T09:24:38;100115.13;;;2.71;49.37
28181;BME280;15464;50.988;10.318;2023-04-04T09:27:09;100120.63;;;2.63;48.69
28181;BME280;15464;50.988;10.318;2023-04-04T09:29:38;100117.09;;;2.64;50.44
28181;BME280;15464;50.988;10.318;2023-04-04T09:32:09;100116.72;;;2.75;51.06
28181;BME280;15464;50.988;10.318;2023-04-04T09:34:36;100114.25;;;2.70;50.57
28181;BME280;15464;50.988;10.318;2023-04-04T09:37:04;100110.91;;;2.67;50.80
28181;BME280;15464;50.988;10.318;2023-04-04T09:39:32;100115.59;;;2.82;51.64
28181;BME280;15464;50.988;10.318;2023-04-04T09:42:00;100107.69;;;2.83;51.53
28181;BME280;15464;50.988;10.318;2023-04-04T09:44:28;100113.56;;;2.90;51.09
28181;BME280;15464;50.988;10.318;2023-04-04T09:47:27;100111.41;;;3.01;51.68
28181;BME280;15464;50.988;10.318;2023-04-04T09:50:00;100119.00;;;3.09;50.05
28181;BME280;15464;50.988;10.318;2023-04-04T09:52:30;100115.31;;;3.14;49.82
28181;BME280;15464;50.988;10.318;2023-04-04T09:54:59;100117.94;;;3.14;50.08
28181;BME280;15464;50.988;10.318;2023-04-04T09:57:31;100124.38;;;3.06;49.99
28181;BME280;15464;50.988;10.318;2023-04-04T10:00:03;100125.16;;;3.08;49.80
28181;BME280;15464;50.988;10.318;2023-04-04T10:02:32;100125.31;;;3.03;49.33
28181;BME280;15464;50.988;10.318;2023-04-04T10:04:59;100123.28;;;3.11;50.47
28181;BME280;15464;50.988;10.318;2023-04-04T10:07:32;100118.72;;;2.93;49.08
28181;BME280;15464;50.988;10.318;2023-04-04T10:10:04;100124.06;;;2.90;49.14
28181;BME280;15464;50.988;10.318;2023-04-04T10:12:31;100119.06;;;2.82;49.56
28181;BME280;15464;50.988;10.318;2023-04-04T10:14:59;100115.56;;;3.07;49.60
28181;BME280;15464;50.988;10.318;2023-04-04T10:17:36;100116.78;;;3.21;49.67
28181;BME280;15464;50.988;10.318;2023-04-04T10:20:04;100116.13;;;3.16;48.94
28181;BME280;15464;50.988;10.318;2023-04-04T10:22:38;100113.72;;;3.34;50.15
28181;BME280;15464;50.988;10.318;2023-04-04T10:25:06;100109.97;;;3.41;51.09
28181;BME280;15464;50.988;10.318;2023-04-04T10:27:33;100111.91;;;3.36;49.49
28181;BME280;15464;50.988;10.318;2023-04-04T10:30:00;100106.06;;;3.51;50.93
28181;BME280;15464;50.988;10.318;2023-04-04T10:35:43;100099.72;;;3.56;50.67
28181;BME280;15464;50.988;10.318;2023-04-04T10:38:13;100102.97;;;3.63;50.76
28181;BME280;15464;50.988;10.318;2023-04-04T10:40:43;100100.34;;;3.63;51.74
28181;BME280;15464;50.988;10.318;2023-04-04T10:43:13;100101.22;;;3.63;51.82
28181;BME280;15464;50.988;10.318;2023-04-04T10:45:41;100097.66;;;3.64;51.43
28181;BME280;15464;50.988;10.318;2023-04-04T10:48:08;100092.72;;;3.57;52.23
28181;BME280;15464;50.988;10.318;2023-04-04T10:50:36;100095.25;;;3.60;52.27
28181;BME280;15464;50.988;10.318;2023-04-04T10:53:05;100097.00;;;3.81;51.58
28181;BME280;15464;50.988;10.318;2023-04-04T10:55:33;100094.44;;;3.58;51.63
28181;BME280;15464;50.988;10.318;2023-04-04T10:58:01;100089.81;;;3.64;52.07
28181;BME280;15464;50.988;10.318;2023-04-04T11:00:28;100085.75;;;3.79;51.71
28181;BME280;15464;50.988;10.318;2023-04-04T11:02:56;100080.56;;;3.99;51.86
28181;BME280;15464;50.988;10.318;2023-04-04T11:05:24;100071.94;;;4.18;51.21
28181;BME280;15464;50.988;10.318;2023-04-04T11:08:00;100071.22;;;4.13;51.01
28181;BME280;15464;50.988;10.318;2023-04-04T11:10:42;100070.81;;;4.01;52.62
28181;BME280;15464;50.988;10.318;2023-04-04T11:13:25;100072.69;;;3.99;50.57
28181;BME280;15464;50.988;10.318;2023-04-04T11:21:09;100071.81;;;3.77;52.22
28181;BME280;15464;50.988;10.318;2023-04-04T11:26:34;100065.22;;;3.89;50.83
28181;BME280;15464;50.988;10.318;2023-04-04T11:29:05;100063.50;;;4.10;53.07
28181;BME280;15464;50.988;10.318;2023-04-04T11:31:38;100062.75;;;4.48;55.37
28181;BME280;15464;50.988;10.318;2023-04-04T11:34:13;100050.19;;;5.33;54.33
28181;BME280;15464;50.988;10.318;2023-04-04T11:39:21;100051.03;;;5.71;52.27
28181;BME280;15464;50.988;10.318;2023-04-04T11:42:11;100052.22;;;5.63;49.96
28181;BME280;15464;50.988;10.318;2023-04-04T11:44:40;100039.94;;;5.64;49.91
28181;BME280;15464;50.988;10.318;2023-04-04T11:47:10;100041.06;;;5.58;50.56
28181;BME280;15464;50.988;10.318;2023-04-04T11:49:39;100036.53;;;5.62;46.21
28181;BME280;15464;50.988;10.318;2023-04-04T11:52:13;100029.03;;;6.07;46.53
28181;BME280;15464;50.988;10.318;2023-04-04T11:54:41;100028.78;;;5.95;45.55
28181;BME280;15464;50.988;10.318;2023-04-04T11:57:17;100023.09;;;5.68;48.95
28181;BME280;15464;50.988;10.318;2023-04-04T11:59:46;100017.06;;;6.36;45.10
28181;BME280;15464;50.988;10.318;2023-04-04T12:02:23;100015.31;;;7.18;49.33
28181;BME280;15464;50.988;10.318;2023-04-04T12:04:53;100009.72;;;7.56;45.38
28181;BME280;15464;50.988;10.318;2023-04-04T12:07:22;100013.88;;;7.44;41.46
28181;BME280;15464;50.988;10.318;2023-04-04T12:09:50;100011.56;;;7.07;41.91
28181;BME280;15464;50.988;10.318;2023-04-04T12:12:17;100002.03;;;7.20;42.97
28181;BME280;15464;50.988;10.318;2023-04-04T12:14:45;100004.28;;;7.12;41.16
28181;BME280;15464;50.988;10.318;2023-04-04T12:17:14;99996.03;;;7.18;41.49
28181;BME280;15464;50.988;10.318;2023-04-04T12:19:42;100001.28;;;7.34;42.08
28181;BME280;15464;50.988;10.318;2023-04-04T12:22:09;99990.22;;;7.58;40.00
28181;BME280;15464;50.988;10.318;2023-04-04T12:24:36;99986.03;;;7.70;38.85
28181;BME280;15464;50.988;10.318;2023-04-04T12:27:03;99977.47;;;7.96;41.01
28181;BME280;15464;50.988;10.318;2023-04-04T12:29:32;99966.09;;;8.68;44.64
28181;BME280;15464;50.988;10.318;2023-04-04T12:32:02;99971.00;;;8.16;39.84
28181;BME280;15464;50.988;10.318;2023-04-04T12:34:31;99964.38;;;8.39;40.39
28181;BME280;15464;50.988;10.318;2023-04-04T12:37:00;99961.00;;;8.65;39.98
28181;BME280;15464;50.988;10.318;2023-04-04T12:39:28;99969.38;;;7.99;41.03
28181;BME280;15464;50.988;10.318;2023-04-04T12:42:00;99963.47;;;7.94;40.21
28181;BME280;15464;50.988;10.318;2023-04-04T12:47:02;99967.06;;;7.93;39.45
28181;BME280;15464;50.988;10.318;2023-04-04T12:49:33;99957.19;;;7.36;40.26
28181;BME280;15464;50.988;10.318;2023-04-04T12:52:05;99953.94;;;6.83;41.56
28181;BME280;15464;50.988;10.318;2023-04-04T12:54:36;99960.72;;;6.72;40.65
28181;BME280;15464;50.988;10.318;2023-04-04T12:57:05;99955.50;;;6.55;41.79
28181;BME280;15464;50.988;10.318;2023-04-04T12:59:36;99950.88;;;6.42;42.35
28181;BME280;15464;50.988;10.318;2023-04-04T13:02:06;99946.16;;;6.65;40.85
28181;BME280;15464;50.988;10.318;2023-04-04T13:04:34;99944.69;;;7.08;40.92
28181;BME280;15464;50.988;10.318;2023-04-04T13:07:01;99943.81;;;6.92;40.68
28181;BME280;15464;50.988;10.318;2023-04-04T13:09:28;99938.72;;;7.04;41.99